Time;durP1;ratioP1;P1;durP2;ratioP2;P2;SDS_P1;SDS_P2;PMS_P1;PMS_P2;Temp;Humidity;BMP_temperature;BMP_pressure;BME280_temperature;BME280_humidity;BME280_pressure;Samples;Min_cycle;Max_cycle;Signal;HPM_P1;HPM_P2
2023/07/11 00:01:45;;;;;;;9.93;5.57;;;;;;;27.72;39.83;97708.88;5015179;28;20195;-72
2023/07/11 00:04:10;;;;;;;12.20;9.63;;;;;;;27.71;40.18;97704.59;5015123;28;20188;-72
2023/07/11 00:06:36;;;;;;;7.60;6.80;;;;;;;27.70;40.00;97705.66;5011353;28;20212;-72
2023/07/11 00:09:02;;;;;;;14.00;12.50;;;;;;;27.64;40.21;97703.16;5018981;28;20229;-71
2023/07/11 00:11:27;;;;;;;7.80;6.40;;;;;;;27.62;40.12;97699.91;5018206;28;20188;-71
2023/07/11 00:13:55;;;;;;;8.53;6.60;;;;;;;27.57;40.01;97704.16;5022952;28;20433;-72
2023/07/11 00:16:21;;;;;;;7.70;5.80;;;;;;;27.53;40.13;97692.28;5013904;28;20632;-70
2023/07/11 00:18:46;;;;;;;8.50;7.27;;;;;;;27.55;40.33;97694.69;5011175;28;20458;-71
2023/07/11 00:21:12;;;;;;;15.20;13.60;;;;;;;27.56;40.28;97690.94;5011310;28;20195;-71
2023/07/11 00:23:38;;;;;;;12.47;10.17;;;;;;;27.52;40.26;97695.19;5010340;28;20628;-72
2023/07/11 00:26:03;;;;;;;11.80;8.03;;;;;;;27.46;40.16;97688.94;5017215;28;20295;-72
2023/07/11 00:28:29;;;;;;;7.40;6.43;;;;;;;27.41;40.37;97695.03;5013669;28;20455;-72
2023/07/11 00:30:54;;;;;;;9.10;7.10;;;;;;;27.34;40.75;97696.28;5014576;28;20549;-71
2023/07/11 00:33:20;;;;;;;13.80;8.10;;;;;;;27.31;40.53;97692.22;5011379;28;20276;-74
2023/07/11 00:35:53;;;;;;;13.17;10.00;;;;;;;27.30;40.52;97690.59;5011548;28;20181;-72
2023/07/11 00:38:19;;;;;;;19.93;13.73;;;;;;;27.26;40.59;97681.38;5013509;28;20307;-73
2023/07/11 00:40:46;;;;;;;14.80;10.07;;;;;;;27.25;40.65;97682.44;5016694;28;20519;-74
2023/07/11 00:43:13;;;;;;;14.53;10.30;;;;;;;27.26;40.87;97681.38;5013217;28;20473;-71
2023/07/11 00:45:57;;;;;;;11.57;6.70;;;;;;;27.26;40.51;97676.84;5009705;28;20434;-71
2023/07/11 00:48:23;;;;;;;11.20;9.73;;;;;;;27.21;40.59;97681.34;5012444;28;20435;-72
2023/07/11 00:50:50;;;;;;;12.47;8.77;;;;;;;27.16;40.70;97675.88;5010746;28;20481;-72
2023/07/11 00:53:16;;;;;;;11.40;9.17;;;;;;;27.08;41.02;97686.00;5009990;28;20188;-71
2023/07/11 00:55:42;;;;;;;12.13;8.53;;;;;;;27.05;41.21;97683.81;5012126;28;20490;-71
2023/07/11 00:58:08;;;;;;;13.97;9.50;;;;;;;27.02;41.28;97681.63;5006677;28;20701;-72
2023/07/11 01:00:33;;;;;;;16.33;11.40;;;;;;;27.01;41.09;97671.13;5009638;28;20488;-71
2023/07/11 01:02:59;;;;;;;12.03;7.90;;;;;;;27.04;41.09;97668.75;5011340;28;20628;-71
2023/07/11 01:05:24;;;;;;;15.57;10.87;;;;;;;27.05;40.71;97674.91;5019795;28;20218;-72
2023/07/11 01:07:50;;;;;;;15.50;9.60;;;;;;;27.02;40.89;97670.84;5010540;28;20295;-72
2023/07/11 01:10:16;;;;;;;16.60;10.97;;;;;;;27.01;41.10;97673.81;5017932;28;20195;-73
2023/07/11 01:12:47;;;;;;;13.23;8.80;;;;;;;26.98;41.02;97667.03;5009679;28;20180;-72
2023/07/11 01:15:13;;;;;;;16.93;10.87;;;;;;;26.89;41.08;97660.44;5008969;28;20211;-72
2023/07/11 01:17:39;;;;;;;17.23;10.83;;;;;;;26.87;41.35;97662.56;5012489;28;20458;-72
2023/07/11 01:20:07;;;;;;;13.97;8.30;;;;;;;26.86;41.18;97658.25;5010276;28;20943;-73
2023/07/11 01:22:37;;;;;;;13.13;9.40;;;;;;;26.79;41.21;97655.72;5016979;28;20185;-72
2023/07/11 01:25:08;;;;;;;18.13;11.70;;;;;;;26.78;41.32;97656.75;4997128;28;20426;-72
2023/07/11 01:27:34;;;;;;;14.37;9.33;;;;;;;26.76;41.37;97662.41;5004754;28;20448;-72
2023/07/11 01:30:21;;;;;;;16.73;10.83;;;;;;;26.71;41.45;97658.81;5012647;28;20865;-73
2023/07/11 01:32:47;;;;;;;17.23;12.23;;;;;;;26.72;41.34;97663.94;5015770;28;20457;-72
2023/07/11 01:35:14;;;;;;;17.30;11.23;;;;;;;26.76;41.29;97662.41;5009517;28;20494;-74
2023/07/11 01:37:39;;;;;;;23.07;14.40;;;;;;;26.75;41.14;97658.06;5009970;28;21023;-71
2023/07/11 01:40:05;;;;;;;18.43;12.30;;;;;;;26.72;41.12;97655.88;5016550;28;20479;-71
2023/07/11 01:42:31;;;;;;;17.23;11.77;;;;;;;26.73;41.36;97651.31;5014995;28;20664;-71
2023/07/11 01:44:56;;;;;;;22.57;15.20;;;;;;;26.68;41.32;97649.38;5014548;28;20422;-71
2023/07/11 01:47:22;;;;;;;23.03;15.40;;;;;;;26.70;41.38;97649.13;5011864;28;20200;-72
2023/07/11 01:49:47;;;;;;;20.80;13.27;;;;;;;26.73;41.36;97651.31;5010402;28;20267;-71
2023/07/11 01:52:22;;;;;;;17.57;12.17;;;;;;;26.79;41.16;97639.59;5010565;28;20297;-71
2023/07/11 01:54:48;;;;;;;17.23;11.40;;;;;;;26.75;40.47;97639.25;5010009;28;20552;-71
2023/07/11 01:57:14;;;;;;;21.13;13.40;;;;;;;26.67;40.93;97635.13;5009717;28;20991;-72
2023/07/11 01:59:40;;;;;;;22.03;13.50;;;;;;;26.63;40.66;97638.53;5009648;28;20428;-71
2023/07/11 02:02:07;;;;;;;19.30;13.70;;;;;;;26.64;40.38;97637.47;5015402;28;20962;-71
2023/07/11 02:04:33;;;;;;;21.13;14.00;;;;;;;26.67;40.45;97637.00;5014735;28;20187;-70
2023/07/11 02:06:59;;;;;;;26.13;16.67;;;;;;;26.76;40.70;97634.72;5009911;28;20439;-71
2023/07/11 02:09:24;;;;;;;27.07;13.90;;;;;;;26.78;40.87;97637.94;5013945;28;20511;-71
2023/07/11 02:11:50;;;;;;;19.30;12.73;;;;;;;26.71;40.28;97632.78;5016960;28;20231;-71
2023/07/11 02:14:20;;;;;;;23.77;15.50;;;;;;;26.73;40.49;97630.63;5009342;28;20187;-71
2023/07/11 02:16:47;;;;;;;32.50;16.23;;;;;;;26.73;40.61;97629.81;5009214;28;20223;-70
2023/07/11 02:19:15;;;;;;;26.97;16.60;;;;;;;26.79;40.48;97629.69;5018902;28;20427;-72
2023/07/11 02:21:41;;;;;;;27.93;18.10;;;;;;;26.81;40.16;97624.88;5008797;28;20472;-70
2023/07/11 02:24:08;;;;;;;29.50;18.33;;;;;;;26.78;40.57;97619.13;5010003;28;20506;-72
2023/07/11 02:26:34;;;;;;;30.63;18.50;;;;;;;26.70;40.62;97619.56;5017024;28;20181;-71
2023/07/11 02:28:59;;;;;;;27.30;17.90;;;;;;;26.62;40.76;97618.09;5009854;28;21009;-72
2023/07/11 02:31:25;;;;;;;27.40;19.20;;;;;;;26.55;41.06;97612.91;5011200;28;20672;-70
2023/07/11 02:33:50;;;;;;;31.30;19.23;;;;;;;26.52;40.99;97608.03;5012512;28;20194;-70
2023/07/11 02:36:16;;;;;;;29.97;18.73;;;;;;;26.50;40.95;97612.84;5017060;28;20191;-70
2023/07/11 02:38:41;;;;;;;32.87;19.20;;;;;;;26.51;40.88;97607.22;5006562;28;20184;-70
2023/07/11 02:41:07;;;;;;;39.40;20.50;;;;;;;26.51;41.03;97604.53;5019858;28;20903;-69
2023/07/11 02:43:33;;;;;;;28.50;19.00;;;;;;;26.46;40.97;97609.84;5008189;28;20807;-72
2023/07/11 02:45:59;;;;;;;26.13;18.03;;;;;;;26.39;41.21;97611.84;5000695;28;20259;-71
2023/07/11 02:48:25;;;;;;;25.07;17.13;;;;;;;26.31;41.27;97607.69;5012756;28;20836;-73
2023/07/11 02:50:50;;;;;;;23.23;16.23;;;;;;;26.32;41.58;97605.84;4989724;28;20213;-73
2023/07/11 02:53:16;;;;;;;25.40;15.63;;;;;;;26.24;41.75;97598.19;5008669;28;20478;-71
2023/07/11 02:55:41;;;;;;;25.63;15.47;;;;;;;26.19;41.48;97604.28;5008550;28;20176;-71
2023/07/11 02:58:07;;;;;;;23.10;15.27;;;;;;;26.15;41.84;97595.91;5008598;28;20664;-73
2023/07/11 03:00:32;;;;;;;20.70;13.67;;;;;;;26.16;41.70;97597.53;5010231;28;20211;-71
2023/07/11 03:02:58;;;;;;;22.90;14.43;;;;;;;26.15;42.11;97597.78;5012188;28;20182;-72
2023/07/11 03:05:24;;;;;;;22.07;13.20;;;;;;;26.17;41.97;97593.78;5016749;28;20471;-72
2023/07/11 03:07:49;;;;;;;23.37;15.00;;;;;;;26.14;41.73;97585.44;5011745;28;20296;-72
2023/07/11 03:10:15;;;;;;;22.80;13.70;;;;;;;26.09;42.07;97588.78;5011936;28;20275;-72
2023/07/11 03:12:40;;;;;;;27.20;14.03;;;;;;;25.97;42.22;97594.25;5003907;28;20184;-72
2023/07/11 03:15:08;;;;;;;19.10;13.80;;;;;;;25.97;41.93;97591.56;5014208;28;20235;-72
2023/07/11 03:17:33;;;;;;;21.67;13.87;;;;;;;25.96;42.39;97591.81;5003526;28;20817;-72
2023/07/11 03:19:58;;;;;;;22.17;13.70;;;;;;;25.92;42.34;97586.09;5010775;28;20427;-71
2023/07/11 03:22:24;;;;;;;20.43;13.00;;;;;;;25.92;42.35;97584.22;5013830;28;20183;-72
2023/07/11 03:24:49;;;;;;;22.47;13.70;;;;;;;25.92;42.36;97584.22;5007652;28;20184;-71
2023/07/11 03:27:15;;;;;;;21.97;13.47;;;;;;;25.90;42.16;97580.97;5011844;28;20318;-73
2023/07/11 03:29:40;;;;;;;17.93;12.40;;;;;;;25.87;42.09;97581.44;5006925;28;20188;-72
2023/07/11 03:32:09;;;;;;;20.40;12.57;;;;;;;25.89;42.28;97573.97;5011509;28;20215;-71
2023/07/11 03:34:34;;;;;;;23.10;13.00;;;;;;;25.91;42.25;97571.03;5012553;28;20235;-71
2023/07/11 03:36:59;;;;;;;19.53;12.40;;;;;;;25.87;42.05;97576.09;5018484;28;20954;-71
2023/07/11 03:39:25;;;;;;;17.33;11.57;;;;;;;25.88;42.47;97575.03;5013610;28;20222;-71
2023/07/11 03:41:51;;;;;;;21.80;11.40;;;;;;;25.88;42.47;97572.34;5018734;28;20303;-74
2023/07/11 03:44:16;;;;;;;16.93;11.67;;;;;;;25.87;42.52;97567.22;5011391;28;20184;-71
2023/07/11 03:46:41;;;;;;;17.93;11.20;;;;;;;25.89;42.46;97568.59;5010616;28;20295;-72
2023/07/11 03:49:07;;;;;;;18.60;11.57;;;;;;;25.87;42.45;97576.09;5019588;28;20825;-71
2023/07/11 03:51:32;;;;;;;20.27;12.87;;;;;;;25.90;42.50;97569.41;5012953;28;20808;-70
2023/07/11 03:53:58;;;;;;;18.87;13.30;;;;;;;25.89;42.50;97576.66;5010998;28;20184;-71
2023/07/11 03:56:23;;;;;;;18.40;12.10;;;;;;;25.88;42.54;97571.53;5011064;28;20238;-75
2023/07/11 03:58:49;;;;;;;18.07;11.47;;;;;;;25.84;42.75;97573.88;5025107;28;20273;-70
2023/07/11 04:01:14;;;;;;;16.90;12.33;;;;;;;25.83;42.91;97574.13;5011483;28;20311;-71
2023/07/11 04:03:40;;;;;;;24.97;12.20;;;;;;;25.82;43.03;97567.97;5011201;28;20706;-72
2023/07/11 04:06:07;;;;;;;18.13;12.47;;;;;;;25.82;42.75;97567.97;5011966;28;20180;-72
2023/07/11 04:08:32;;;;;;;19.60;11.87;;;;;;;25.85;42.94;97572.03;5011362;28;20298;-71
2023/07/11 04:11:01;;;;;;;15.40;11.23;;;;;;;25.79;43.12;97567.59;5021921;28;20423;-70
2023/07/11 04:13:27;;;;;;;17.50;10.37;;;;;;;25.73;43.63;97567.53;5008046;28;20188;-73
2023/07/11 04:15:52;;;;;;;16.53;11.07;;;;;;;25.74;43.30;97555.75;5008227;28;20423;-71
2023/07/11 04:18:18;;;;;;;14.80;10.33;;;;;;;25.78;43.82;97561.44;5011117;28;20459;-71
2023/07/11 04:20:45;;;;;;;19.17;10.40;;;;;;;25.82;43.34;97567.13;5010688;28;20246;-71
2023/07/11 04:23:11;;;;;;;14.93;10.40;;;;;;;25.86;43.58;97558.34;5004773;28;20286;-73
2023/07/11 04:25:37;;;;;;;18.07;10.27;;;;;;;25.88;43.52;97561.59;5010826;28;20443;-72
2023/07/11 04:28:04;;;;;;;15.53;10.40;;;;;;;25.88;43.12;97558.13;5010033;28;20920;-71
2023/07/11 04:30:30;;;;;;;16.00;9.20;;;;;;;25.91;43.35;97560.31;5011017;28;20254;-70
2023/07/11 04:32:55;;;;;;;11.30;8.53;;;;;;;25.89;43.56;97565.13;5009652;28;20431;-71
2023/07/11 04:35:21;;;;;;;19.23;10.10;;;;;;;25.91;43.26;97565.66;5010468;28;20259;-71
2023/07/11 04:37:46;;;;;;;14.90;9.20;;;;;;;25.95;43.82;97560.66;5011440;28;20212;-71
2023/07/11 04:40:12;;;;;;;13.70;9.00;;;;;;;25.99;43.27;97561.78;5014104;28;20177;-71
2023/07/11 04:42:38;;;;;;;15.37;8.83;;;;;;;26.02;43.48;97561.28;5014571;28;20191;-71
2023/07/11 04:45:05;;;;;;;13.30;9.57;;;;;;;26.05;43.64;97561.59;5019201;28;20183;-69
2023/07/11 04:47:30;;;;;;;15.17;9.40;;;;;;;26.08;43.49;97557.66;5012738;28;20199;-71
2023/07/11 04:49:56;;;;;;;19.20;9.97;;;;;;;26.05;43.97;97552.75;5012796;28;20427;-73
2023/07/11 04:52:21;;;;;;;13.63;9.77;;;;;;;26.07;43.89;97556.00;5010605;28;20660;-71
2023/07/11 04:54:47;;;;;;;13.93;10.20;;;;;;;26.11;44.25;97554.47;5010370;28;20602;-71
2023/07/11 04:57:12;;;;;;;12.60;8.57;;;;;;;26.15;43.98;97547.56;5009611;28;20231;-71
2023/07/11 04:59:38;;;;;;;17.67;10.10;;;;;;;26.18;44.09;97557.84;5010232;28;20239;-71
2023/07/11 05:02:03;;;;;;;15.10;10.13;;;;;;;26.18;43.89;97555.16;5009149;28;20191;-70
2023/07/11 05:04:28;;;;;;;13.43;10.57;;;;;;;26.22;44.24;97553.56;5010382;28;20249;-75
2023/07/11 05:06:54;;;;;;;12.40;9.43;;;;;;;26.31;44.03;97553.97;5009868;28;20209;-71
2023/07/11 05:09:19;;;;;;;11.63;8.37;;;;;;;26.39;43.73;97550.06;5010279;28;20188;-72
2023/07/11 05:11:45;;;;;;;11.87;8.53;;;;;;;26.48;43.45;97547.78;5017192;28;20211;-74
2023/07/11 05:14:10;;;;;;;11.10;8.00;;;;;;;26.57;43.44;97540.13;5009615;28;20264;-71
2023/07/11 05:16:36;;;;;;;14.97;10.10;;;;;;;26.66;43.46;97544.00;5009826;28;20208;-71
2023/07/11 05:19:01;;;;;;;17.53;9.40;;;;;;;26.70;43.70;97545.13;5007414;28;20193;-73
2023/07/11 05:21:27;;;;;;;13.80;8.87;;;;;;;26.71;43.65;97544.06;5009562;28;20275;-70
2023/07/11 05:23:55;;;;;;;17.17;10.43;;;;;;;26.72;43.35;97542.97;5012393;28;20239;-70
2023/07/11 05:26:21;;;;;;;14.63;10.10;;;;;;;26.75;43.48;97541.69;5001618;28;20242;-69
2023/07/11 05:28:46;;;;;;;11.93;8.40;;;;;;;26.81;43.70;97532.66;5007484;28;20467;-74
2023/07/11 05:31:12;;;;;;;11.90;8.33;;;;;;;26.84;43.53;97534.84;5011426;28;20176;-74
2023/07/11 05:33:37;;;;;;;12.13;8.57;;;;;;;26.90;43.49;97524.97;5022702;28;20287;-71
2023/07/11 05:36:23;;;;;;;11.87;8.80;;;;;;;26.96;43.46;97519.41;5009747;28;20189;-71
2023/07/11 05:38:48;;;;;;;13.33;8.20;;;;;;;27.04;43.33;97520.84;5009567;28;20203;-71
2023/07/11 05:41:14;;;;;;;11.50;8.37;;;;;;;27.12;43.26;97523.06;5013269;28;20419;-71
2023/07/11 05:43:40;;;;;;;12.60;8.53;;;;;;;27.19;43.36;97519.38;5011404;28;20605;-71
2023/07/11 05:46:05;;;;;;;11.20;7.53;;;;;;;27.22;43.19;97517.00;5009453;28;20215;-71
2023/07/11 05:48:31;;;;;;;18.70;8.63;;;;;;;27.17;43.50;97522.31;5009001;28;20291;-73
2023/07/11 05:51:02;;;;;;;18.13;10.13;;;;;;;27.13;43.70;97513.94;5007416;28;20189;-73
2023/07/11 05:53:28;;;;;;;11.33;9.27;;;;;;;27.13;43.88;97518.53;5017538;28;20435;-71
2023/07/11 05:55:55;;;;;;;22.07;8.37;;;;;;;27.13;43.88;97516.63;5009132;28;20522;-72
2023/07/11 05:58:21;;;;;;;25.80;8.00;;;;;;;27.10;43.52;97514.44;5013420;28;20463;-71
2023/07/11 06:00:46;;;;;;;12.50;8.10;;;;;;;27.14;43.84;97507.50;5009470;28;20446;-73
2023/07/11 06:03:12;;;;;;;14.17;7.37;;;;;;;27.27;44.09;97513.53;5006761;28;20184;-73
2023/07/11 06:05:37;;;;;;;16.33;8.13;;;;;;;27.36;44.12;97503.94;5007674;28;20184;-73
2023/07/11 06:08:03;;;;;;;13.27;6.97;;;;;;;27.48;43.83;97511.06;5006956;28;20215;-74
2023/07/11 06:10:29;;;;;;;12.77;7.40;;;;;;;27.53;43.01;97497.69;5008061;28;20192;-72
2023/07/11 06:12:54;;;;;;;11.30;6.63;;;;;;;27.67;42.72;97498.88;5007325;28;20559;-72
2023/07/11 06:15:19;;;;;;;14.80;7.30;;;;;;;27.81;42.54;97498.47;5010358;28;20198;-72
2023/07/11 06:17:45;;;;;;;9.43;6.30;;;;;;;27.96;42.55;97501.28;5013254;28;20211;-71
2023/07/11 06:20:11;;;;;;;9.20;6.97;;;;;;;28.08;41.82;97493.00;5014047;28;20698;-72
2023/07/11 06:22:36;;;;;;;9.60;6.83;;;;;;;28.24;41.76;97488.53;5011655;28;20614;-71
2023/07/11 06:25:02;;;;;;;11.00;6.77;;;;;;;28.39;41.47;97489.69;5008986;28;20196;-71
2023/07/11 06:27:31;;;;;;;8.43;5.40;;;;;;;28.50;40.97;97489.50;5013860;28;20295;-72
2023/07/11 06:29:56;;;;;;;15.47;5.93;;;;;;;28.62;39.60;97491.16;5010852;28;20991;-74
2023/07/11 06:32:22;;;;;;;9.10;5.23;;;;;;;28.77;38.94;97488.56;5007823;28;20424;-72
2023/07/11 06:34:47;;;;;;;8.67;5.10;;;;;;;28.95;38.80;97489.97;5008650;28;20196;-73
2023/07/11 06:37:13;;;;;;;12.33;5.23;;;;;;;29.10;37.60;97485.72;5008402;28;20216;-72
2023/07/11 06:39:40;;;;;;;9.00;5.13;;;;;;;29.29;37.59;97488.72;5008769;28;20195;-72
2023/07/11 06:42:05;;;;;;;9.43;5.03;;;;;;;29.36;36.61;97491.19;5013190;28;20286;-72
2023/07/11 06:44:31;;;;;;;6.90;5.07;;;;;;;29.49;36.47;97492.53;5015532;28;20478;-72
2023/07/11 06:46:56;;;;;;;8.67;4.90;;;;;;;29.70;36.02;97487.97;5008760;28;20203;-73
2023/07/11 06:49:22;;;;;;;6.43;5.07;;;;;;;29.77;34.45;97485.00;5007802;28;20208;-72
2023/07/11 06:51:49;;;;;;;6.50;4.60;;;;;;;29.85;34.20;97490.66;5007446;28;20533;-72
2023/07/11 06:54:15;;;;;;;7.30;4.90;;;;;;;30.06;34.10;97485.25;5008931;28;20212;-72
2023/07/11 06:56:41;;;;;;;8.53;4.97;;;;;;;30.15;33.91;97489.03;5017707;28;20462;-72
2023/07/11 06:59:07;;;;;;;5.40;4.70;;;;;;;30.23;33.58;97484.16;5018001;28;20418;-71
2023/07/11 07:01:32;;;;;;;7.13;4.70;;;;;;;30.23;33.13;97484.16;5008202;28;20180;-72
2023/07/11 07:03:59;;;;;;;4.70;3.87;;;;;;;30.40;33.17;97478.44;5020179;28;20263;-73
2023/07/11 07:06:25;;;;;;;7.63;4.40;;;;;;;30.54;32.73;97473.28;5014044;28;20617;-72
2023/07/11 07:08:50;;;;;;;5.57;4.43;;;;;;;30.62;32.78;97478.94;5018727;28;20537;-72
2023/07/11 07:11:16;;;;;;;10.30;4.90;;;;;;;30.52;32.77;97478.13;5011027;28;20670;-73
2023/07/11 07:13:42;;;;;;;6.83;4.70;;;;;;;30.70;32.78;97468.59;5014950;28;20184;-72
2023/07/11 07:16:08;;;;;;;6.80;4.53;;;;;;;30.89;32.89;97479.59;5007561;28;20802;-73
2023/07/11 07:18:38;;;;;;;6.00;4.37;;;;;;;31.01;32.77;97473.88;5008235;28;20565;-71
2023/07/11 07:21:04;;;;;;;5.10;4.60;;;;;;;31.19;32.65;97469.75;5008109;28;20180;-72
2023/07/11 07:23:31;;;;;;;6.87;4.27;;;;;;;31.28;32.12;97464.53;5008129;28;20427;-73
2023/07/11 07:25:59;;;;;;;5.50;4.80;;;;;;;31.41;31.93;97464.72;5004160;28;20944;-72
2023/07/11 07:28:25;;;;;;;5.60;3.90;;;;;;;31.55;31.69;97464.06;5007834;28;20431;-72
2023/07/11 07:30:52;;;;;;;6.53;4.63;;;;;;;31.69;31.61;97459.66;5015295;28;20434;-73
2023/07/11 07:33:19;;;;;;;8.43;5.07;;;;;;;31.57;31.20;97461.88;5011368;28;20427;-73
2023/07/11 07:35:44;;;;;;;7.20;4.10;;;;;;;31.63;31.41;97458.03;5014302;28;20422;-73
2023/07/11 07:38:10;;;;;;;6.90;4.50;;;;;;;31.73;30.93;97456.38;5023020;28;21076;-73
2023/07/11 07:40:36;;;;;;;5.70;4.43;;;;;;;31.63;31.74;97452.63;5013593;28;20184;-73
2023/07/11 07:43:02;;;;;;;7.10;4.70;;;;;;;31.84;31.58;97455.19;5011424;28;20843;-73
2023/07/11 07:45:27;;;;;;;5.83;4.40;;;;;;;31.90;31.52;97451.31;5007642;28;20427;-73
2023/07/11 07:47:53;;;;;;;5.00;4.50;;;;;;;32.06;31.65;97453.88;5008635;28;20207;-71
2023/07/11 07:50:19;;;;;;;5.30;4.20;;;;;;;32.20;31.33;97454.81;5007006;28;20199;-75
2023/07/11 07:52:44;;;;;;;9.10;4.60;;;;;;;32.38;31.38;97447.88;5017308;28;20225;-73
2023/07/11 07:55:09;;;;;;;5.87;5.37;;;;;;;32.36;31.27;97452.78;5010423;28;20314;-73
2023/07/11 07:57:35;;;;;;;4.77;4.30;;;;;;;32.45;31.33;97444.81;5012330;28;20208;-73
2023/07/11 08:00:04;;;;;;;11.00;4.50;;;;;;;32.53;31.04;97448.78;5016502;28;20265;-73
2023/07/11 08:02:31;;;;;;;6.53;4.47;;;;;;;32.68;31.49;97445.91;5008956;28;20676;-73
2023/07/11 08:04:57;;;;;;;5.77;4.73;;;;;;;32.82;31.31;97432.44;5011734;28;20428;-72
2023/07/11 08:07:24;;;;;;;6.87;4.50;;;;;;;33.02;30.78;97433.22;5010365;28;20523;-72
2023/07/11 08:09:50;;;;;;;8.10;4.70;;;;;;;33.18;30.87;97431.13;5017176;28;20480;-73
2023/07/11 08:12:15;;;;;;;5.13;4.57;;;;;;;33.26;30.39;97427.72;5010663;28;20412;-73
2023/07/11 08:14:41;;;;;;;6.30;4.60;;;;;;;33.31;30.92;97424.13;5011044;28;20776;-72
2023/07/11 08:17:08;;;;;;;7.20;5.03;;;;;;;33.18;30.86;97422.97;5010145;28;20220;-72
2023/07/11 08:19:34;;;;;;;5.80;5.30;;;;;;;33.42;30.74;97427.53;5014293;28;20238;-73
2023/07/11 08:22:00;;;;;;;5.07;4.50;;;;;;;33.57;30.77;97426.44;5023051;28;20454;-71
2023/07/11 08:24:26;;;;;;;5.20;4.50;;;;;;;33.68;30.42;97419.72;5011684;28;20192;-71
2023/07/11 08:26:51;;;;;;;5.30;4.67;;;;;;;33.51;30.57;97423.00;5011018;28;20298;-73
2023/07/11 08:29:17;;;;;;;10.77;4.40;;;;;;;33.52;31.04;97420.00;5013758;28;20565;-72
2023/07/11 08:31:42;;;;;;;8.53;4.57;;;;;;;33.77;30.78;97409.81;5010462;28;20191;-73
2023/07/11 08:34:08;;;;;;;5.60;4.63;;;;;;;33.79;30.61;97410.28;5018137;28;20187;-73
2023/07/11 08:36:33;;;;;;;6.50;5.03;;;;;;;34.02;30.63;97407.75;5010159;28;20314;-72
2023/07/11 08:38:59;;;;;;;5.53;4.90;;;;;;;34.29;30.52;97403.41;5010989;28;20675;-73
2023/07/11 08:41:50;;;;;;;8.90;4.90;;;;;;;34.49;30.73;97394.03;5014658;28;20263;-71
2023/07/11 08:44:32;;;;;;;8.77;4.90;;;;;;;34.48;30.83;97395.16;5010297;28;20206;-71
2023/07/11 08:47:06;;;;;;;8.67;4.90;;;;;;;34.61;30.79;97398.97;5017748;28;20547;-72
2023/07/11 08:49:37;;;;;;;6.20;4.40;;;;;;;34.40;31.18;97393.97;5017946;28;20427;-72
2023/07/11 08:52:04;;;;;;;12.13;5.80;;;;;;;34.47;30.90;97379.94;5014600;28;20500;-72
2023/07/11 08:54:36;;;;;;;7.83;4.97;;;;;;;34.73;30.81;97384.81;5018194;28;20435;-73
2023/07/11 08:57:01;;;;;;;12.77;5.47;;;;;;;34.89;30.49;97383.38;5015809;28;20474;-73
2023/07/11 08:59:41;;;;;;;5.20;4.80;;;;;;;34.96;30.66;97379.47;5009081;28;20805;-71
2023/07/11 09:02:10;;;;;;;7.47;5.00;;;;;;;35.11;30.71;97373.63;5008747;28;20215;-72
2023/07/11 09:04:46;;;;;;;13.00;7.30;;;;;;;35.29;30.77;97366.38;5009804;28;20427;-72
2023/07/11 09:07:36;;;;;;;9.97;5.90;;;;;;;35.50;30.51;97369.44;5010328;28;20438;-71
2023/07/11 09:10:02;;;;;;;9.27;7.40;;;;;;;35.72;30.36;97361.53;5011351;28;20423;-72
2023/07/11 09:12:48;;;;;;;6.50;5.37;;;;;;;35.66;30.07;97358.13;5009408;28;20818;-73
2023/07/11 09:15:28;;;;;;;11.13;4.90;;;;;;;35.76;29.20;97348.88;5009395;28;20419;-73
2023/07/11 09:17:59;;;;;;;6.23;5.40;;;;;;;36.01;29.09;97354.78;5009053;28;20544;-74
2023/07/11 09:20:43;;;;;;;5.30;4.80;;;;;;;36.09;28.68;97345.81;5009811;28;20419;-72
2023/07/11 09:23:14;;;;;;;6.00;5.40;;;;;;;36.31;28.32;97342.19;4997940;28;20422;-72
2023/07/11 09:25:43;;;;;;;4.93;4.53;;;;;;;36.40;28.94;97336.75;5005699;28;21044;-72
2023/07/11 09:28:23;;;;;;;9.83;8.47;;;;;;;36.60;28.67;97327.16;5013106;28;20435;-72
2023/07/11 09:30:56;;;;;;;13.33;5.20;;;;;;;36.78;28.65;97333.41;5001678;28;20435;-72
2023/07/11 09:33:24;;;;;;;6.37;5.30;;;;;;;36.86;27.53;97332.59;5009802;28;20422;-72
2023/07/11 09:35:52;;;;;;;7.70;4.60;;;;;;;36.64;27.85;97328.09;5018114;28;20478;-73
2023/07/11 09:38:39;;;;;;;5.33;4.83;;;;;;;36.54;28.48;97326.50;5000853;28;20469;-72
2023/07/11 09:41:33;;;;;;;11.50;5.50;;;;;;;36.46;28.33;97330.03;5013104;28;20430;-72
2023/07/11 09:43:59;;;;;;;6.87;5.57;;;;;;;36.62;27.78;97324.09;5002987;28;20426;-72
2023/07/11 09:46:25;;;;;;;9.03;5.00;;;;;;;36.82;27.67;97320.72;5009063;28;20454;-72
2023/07/11 09:48:54;;;;;;;8.67;7.87;;;;;;;37.06;27.81;97315.91;5019283;28;20723;-72
2023/07/11 09:51:36;;;;;;;6.43;4.60;;;;;;;37.31;27.67;97316.97;5004130;28;20428;-71
2023/07/11 09:54:04;;;;;;;5.60;4.63;;;;;;;37.48;26.73;97319.69;5009355;28;20419;-73
2023/07/11 09:56:42;;;;;;;6.30;4.50;;;;;;;37.55;26.70;97321.13;5018726;28;20769;-73
2023/07/11 09:59:10;;;;;;;5.23;4.37;;;;;;;37.72;26.52;97323.75;5012747;28;20434;-73
2023/07/11 10:01:36;;;;;;;14.00;5.50;;;;;;;37.65;25.81;97320.75;5008598;28;20839;-73
2023/07/11 10:04:05;;;;;;;8.47;5.20;;;;;;;37.57;26.29;97307.91;5009499;28;20418;-72
2023/07/11 10:06:35;;;;;;;5.13;4.17;;;;;;;37.84;26.29;97317.59;5008894;28;20183;-72
2023/07/11 10:09:06;;;;;;;5.33;4.40;;;;;;;38.07;25.61;97320.88;5007919;28;20489;-73
2023/07/11 10:11:32;;;;;;;6.40;4.70;;;;;;;38.07;25.54;97320.09;5012215;28;20480;-72
2023/07/11 10:13:57;;;;;;;7.90;4.97;;;;;;;38.03;25.47;97314.47;5009045;28;20863;-73
2023/07/11 10:16:23;;;;;;;7.07;4.97;;;;;;;37.92;25.76;97316.00;5008368;28;20186;-72
2023/07/11 10:18:51;;;;;;;7.03;4.60;;;;;;;37.76;26.08;97313.78;5009541;28;20211;-73
2023/07/11 10:21:20;;;;;;;6.57;4.53;;;;;;;37.59;26.06;97311.13;5008999;28;20652;-73
2023/07/11 10:23:47;;;;;;;13.30;5.30;;;;;;;37.62;26.26;97314.00;4999810;28;20837;-73
2023/07/11 10:26:23;;;;;;;9.20;6.63;;;;;;;37.81;26.04;97310.84;5006932;28;20525;-72
2023/07/11 10:29:01;;;;;;;8.93;4.93;;;;;;;37.96;25.23;97311.44;5001451;28;20438;-73
2023/07/11 10:31:33;;;;;;;5.87;4.30;;;;;;;38.19;25.88;97311.16;5030703;28;20430;-72
2023/07/11 10:34:13;;;;;;;7.70;4.50;;;;;;;38.04;25.64;97291.47;5014752;28;20767;-72
2023/07/11 10:36:46;;;;;;;6.13;5.00;;;;;;;38.40;25.52;97284.66;5014301;28;20422;-72
2023/07/11 10:39:25;;;;;;;7.63;5.00;;;;;;;38.68;25.10;97286.84;5009221;28;20904;-71
2023/07/11 10:41:55;;;;;;;5.97;4.73;;;;;;;38.90;25.30;97281.34;4998112;28;20431;-72
2023/07/11 10:44:25;;;;;;;9.03;4.70;;;;;;;38.84;25.28;97276.09;5007873;28;20431;-71
2023/07/11 10:46:52;;;;;;;5.83;4.57;;;;;;;38.93;25.32;97275.19;5004735;28;20443;-70
2023/07/11 10:49:21;;;;;;;6.20;4.90;;;;;;;38.89;25.30;97269.59;5015082;28;20426;-72
2023/07/11 10:52:10;;;;;;;7.17;4.40;;;;;;;38.96;25.38;97267.09;5008896;28;20818;-72
2023/07/11 10:54:44;;;;;;;6.93;5.90;;;;;;;39.21;24.91;97272.63;5007133;28;20411;-74
2023/07/11 10:57:36;;;;;;;10.03;5.40;;;;;;;39.36;25.08;97256.69;5007859;28;20469;-73
2023/07/11 11:00:07;;;;;;;5.50;4.50;;;;;;;39.43;24.74;97252.25;5008356;28;20427;-73
2023/07/11 11:03:13;;;;;;;7.13;4.97;;;;;;;39.51;24.86;97252.50;5016971;28;20797;-72
2023/07/11 11:06:05;;;;;;;7.80;4.77;;;;;;;39.60;24.53;97237.50;5009025;28;20431;-73
2023/07/11 11:08:40;;;;;;;9.57;5.63;;;;;;;39.35;25.06;97238.66;4993334;28;21019;-74
2023/07/11 11:11:15;;;;;;;10.03;5.10;;;;;;;39.25;25.10;97250.84;5011867;28;20425;-72
2023/07/11 11:13:56;;;;;;;7.87;5.43;;;;;;;38.84;25.14;97234.19;5008336;28;20484;-74
2023/07/11 11:16:31;;;;;;;5.90;4.60;;;;;;;38.72;25.73;97222.06;5015455;28;20979;-72
2023/07/11 11:19:10;;;;;;;9.73;5.33;;;;;;;38.67;25.93;97221.47;5007370;28;20446;-73
2023/07/11 11:21:49;;;;;;;6.93;5.17;;;;;;;38.86;25.90;97218.25;5004647;28;20424;-73
2023/07/11 11:24:28;;;;;;;8.50;5.20;;;;;;;39.15;25.63;97211.00;5008356;28;20430;-74
2023/07/11 11:27:20;;;;;;;6.37;4.87;;;;;;;39.31;25.47;97203.75;4999318;28;20449;-73
2023/07/11 11:30:06;;;;;;;7.17;5.80;;;;;;;39.54;25.40;97208.75;4981009;28;20563;-72
2023/07/11 11:32:41;;;;;;;6.10;5.00;;;;;;;39.82;25.15;97199.03;5007537;28;20427;-73